createdAt,value
2018-06-09T00:02:07.257Z,52.33
2018-06-09T00:04:40.610Z,52.27
2018-06-09T00:07:09.440Z,52.50
2018-06-09T00:09:38.915Z,52.33
2018-06-09T00:12:08.589Z,53.60
2018-06-09T00:14:40.413Z,52.77
2018-06-09T00:19:56.345Z,56.47
2018-06-09T00:22:25.433Z,53.80
2018-06-09T00:24:56.175Z,55.37
2018-06-09T00:27:26.640Z,52.17
2018-06-09T00:29:55.204Z,54.10
2018-06-09T00:32:24.725Z,54.83
2018-06-09T00:34:54.032Z,54.30
2018-06-09T00:37:23.701Z,54.90
2018-06-09T00:39:52.500Z,56.43
2018-06-09T00:42:22.311Z,57.60
2018-06-09T00:44:52.354Z,57.37
2018-06-09T00:47:29.944Z,57.13
2018-06-09T00:49:59.322Z,58.03
2018-06-09T00:52:30.065Z,57.40
2018-06-09T00:55:00.174Z,60.53
2018-06-09T00:57:29.236Z,60.50
2018-06-09T00:59:58.784Z,61.07
2018-06-09T01:02:28.324Z,62.97
2018-06-09T01:04:57.413Z,61.50
2018-06-09T01:07:30.780Z,61.97
2018-06-09T01:10:02.846Z,63.10
2018-06-09T01:12:33.595Z,63.07
2018-06-09T01:15:05.059Z,64.80
2018-06-09T01:17:33.736Z,66.60
2018-06-09T01:20:04.062Z,61.97
2018-06-09T01:22:38.899Z,64.10
2018-06-09T01:25:08.529Z,64.37
2018-06-09T01:27:37.962Z,65.77
2018-06-09T01:30:10.278Z,65.03
2018-06-09T01:32:42.797Z,66.03
2018-06-09T01:35:12.622Z,63.10
2018-06-09T01:37:42.651Z,64.63
2018-06-09T01:40:14.429Z,66.30
2018-06-09T01:42:43.665Z,68.53
2018-06-09T01:45:15.296Z,65.93
2018-06-09T01:47:54.259Z,65.10
2018-06-09T01:50:32.397Z,65.37
2018-06-09T01:53:01.692Z,66.73
2018-06-09T01:55:36.380Z,66.73
2018-06-09T01:58:12.297Z,64.67
2018-06-09T02:00:43.196Z,66.03
2018-06-09T02:03:13.568Z,66.17
2018-06-09T02:05:54.715Z,67.90
2018-06-09T02:08:29.305Z,65.13
2018-06-09T02:13:56.316Z,66.03
2018-06-09T02:16:28.205Z,62.90
2018-06-09T02:19:03.380Z,65.67
2018-06-09T02:21:37.165Z,65.57
2018-06-09T02:24:09.592Z,63.30
2018-06-09T02:27:10.653Z,64.07
2018-06-09T02:32:43.485Z,66.10
2018-06-09T02:35:18.609Z,63.63
2018-06-09T02:38:05.271Z,63.80
2018-06-09T02:42:42.771Z,66.70
2018-06-09T02:45:14.409Z,64.03
2018-06-09T02:47:46.675Z,64.17
2018-06-09T02:50:18.345Z,67.23
2018-06-09T02:55:26.381Z,66.03
2018-06-09T03:00:42.261Z,66.13
2018-06-09T03:03:24.484Z,65.83
2018-06-09T03:06:00.422Z,66.17
2018-06-09T03:08:29.436Z,65.53
2018-06-09T03:11:02.135Z,66.50
2018-06-09T03:13:42.175Z,66.47
2018-06-09T03:16:12.181Z,66.40
2018-06-09T03:25:37.320Z,67.40
2018-06-09T03:28:09.424Z,66.90
2018-06-09T03:30:47.339Z,69.43
2018-06-09T03:33:27.307Z,72.67
2018-06-09T03:36:00.378Z,69.77
2018-06-09T03:38:35.332Z,73.60
2018-06-09T03:41:08.203Z,74.67
2018-06-09T03:43:41.668Z,70.83
2018-06-09T03:46:13.398Z,71.70
2018-06-09T03:48:44.301Z,74.70
2018-06-09T03:51:22.323Z,73.83
2018-06-09T03:54:07.189Z,73.97
2018-06-09T03:56:38.429Z,72.90
2018-06-09T03:59:10.355Z,73.23
2018-06-09T04:04:33.449Z,73.03
2018-06-09T04:10:03.419Z,71.93
2018-06-09T04:15:18.422Z,72.17
2018-06-09T04:21:21.825Z,75.00
2018-06-09T04:23:53.317Z,76.20
2018-06-09T04:26:29.316Z,75.30
2018-06-09T04:29:04.708Z,77.50
2018-06-09T04:31:56.490Z,77.87
2018-06-09T04:34:32.462Z,73.33
2018-06-09T04:37:06.830Z,71.93
2018-06-09T04:41:46.200Z,73.57
2018-06-09T04:44:20.284Z,73.93
2018-06-09T04:46:59.222Z,70.40
2018-06-09T04:51:37.492Z,74.20
2018-06-09T04:54:14.447Z,73.40
2018-06-09T04:56:48.302Z,72.63
2018-06-09T04:59:20.374Z,71.80
2018-06-09T05:04:51.697Z,76.43
2018-06-09T05:09:39.336Z,75.23
2018-06-09T05:12:12.702Z,72.07
2018-06-09T05:14:41.452Z,75.50
2018-06-09T05:17:11.806Z,74.17
2018-06-09T05:19:40.911Z,75.43
2018-06-09T05:22:21.986Z,79.43
2018-06-09T05:24:50.671Z,77.13
2018-06-09T05:27:19.225Z,73.87
2018-06-09T05:29:48.011Z,80.90
2018-06-09T05:32:18.068Z,81.57
2018-06-09T05:34:46.480Z,78.97
2018-06-09T05:37:27.677Z,78.80
2018-06-09T05:39:56.363Z,77.60
2018-06-09T05:42:25.168Z,77.93
2018-06-09T05:44:53.588Z,81.13
2018-06-09T05:47:22.376Z,81.70
2018-06-09T05:49:51.177Z,79.33
2018-06-09T05:52:32.063Z,81.87
2018-06-09T05:55:02.501Z,79.43
2018-06-09T05:57:31.597Z,79.23
2018-06-09T06:00:01.742Z,75.93
2018-06-09T06:02:30.835Z,76.07
2018-06-09T06:04:59.712Z,76.63
2018-06-09T06:07:29.973Z,78.47
2018-06-09T06:09:58.641Z,75.20
2018-06-09T06:12:39.708Z,71.07
2018-06-09T06:15:08.984Z,77.53
2018-06-09T06:17:37.772Z,80.20
2018-06-09T06:20:06.828Z,78.23
2018-06-09T06:22:36.182Z,74.80
2018-06-09T06:25:04.603Z,74.87
2018-06-09T06:27:46.197Z,81.33
2018-06-09T06:30:16.064Z,79.73
2018-06-09T06:32:44.834Z,80.83
2018-06-09T06:35:13.230Z,76.23
2018-06-09T06:37:42.333Z,74.70
2018-06-09T06:40:11.134Z,72.60
2018-06-09T06:42:43.516Z,67.27
2018-06-09T06:45:12.595Z,66.00
2018-06-09T06:47:45.009Z,64.97
2018-06-09T06:50:13.831Z,63.93
2018-06-09T06:52:48.525Z,63.90
2018-06-09T06:55:17.370Z,64.40
2018-06-09T06:57:49.189Z,70.53
2018-06-09T07:00:18.299Z,65.70
2018-06-09T07:02:58.969Z,67.30
2018-06-09T07:05:28.166Z,66.73
2018-06-09T07:07:58.545Z,65.77
2018-06-09T07:10:26.956Z,63.50
2018-06-09T07:13:02.245Z,60.97
2018-06-09T07:15:32.276Z,63.27
2018-06-09T07:18:02.189Z,63.90
2018-06-09T07:20:31.708Z,61.03
2018-06-09T07:23:00.133Z,62.57
2018-06-09T07:25:29.239Z,60.43
2018-06-09T07:28:02.071Z,62.17
2018-06-09T07:30:31.946Z,60.63
2018-06-09T07:33:04.952Z,60.13
2018-06-09T07:35:33.938Z,61.17
2018-06-09T07:38:06.954Z,57.80
2018-06-09T07:40:35.494Z,58.47
2018-06-09T07:43:09.182Z,58.33
2018-06-09T07:45:38.073Z,56.53
2018-06-09T07:48:11.174Z,56.20
2018-06-09T07:50:40.222Z,62.67
2018-06-09T07:53:14.352Z,60.80
2018-06-09T07:55:43.413Z,58.23
2018-06-09T07:58:14.926Z,61.27
2018-06-09T08:00:43.608Z,58.83
2018-06-09T08:03:17.401Z,58.67
2018-06-09T08:05:46.795Z,60.30
2018-06-09T08:08:18.633Z,56.83
2018-06-09T08:10:48.069Z,57.07
2018-06-09T08:13:29.104Z,56.80
2018-06-09T08:15:58.481Z,57.37
2018-06-09T08:18:28.450Z,59.83
2018-06-09T08:20:57.057Z,61.03
2018-06-09T08:23:26.527Z,62.33
2018-06-09T08:25:55.447Z,63.80
2018-06-09T08:28:26.072Z,64.63
2018-06-09T08:30:55.363Z,64.13
2018-06-09T08:33:28.382Z,61.23
2018-06-09T08:35:57.663Z,61.70
2018-06-09T08:38:30.197Z,63.47
2018-06-09T08:40:59.568Z,61.30
2018-06-09T08:43:33.220Z,63.20
2018-06-09T08:46:09.782Z,59.07
2018-06-09T08:48:40.192Z,62.17
2018-06-09T08:51:09.130Z,59.50
2018-06-09T08:53:37.826Z,61.53
2018-06-09T08:56:08.289Z,56.90
2018-06-09T08:58:38.240Z,59.57
2018-06-09T09:01:07.485Z,56.30
2018-06-09T09:03:39.109Z,58.37
2018-06-09T09:06:09.699Z,59.50
2018-06-09T09:08:41.080Z,60.40
2018-06-09T09:11:10.070Z,57.57
2018-06-09T09:13:48.177Z,58.40
2018-06-09T09:16:17.697Z,57.33
2018-06-09T09:18:46.666Z,61.53
2018-06-09T09:21:15.653Z,58.75
2018-06-09T09:23:47.993Z,57.75
2018-06-09T09:26:19.385Z,57.88
2018-06-09T09:28:50.198Z,59.55
2018-06-09T09:31:19.708Z,59.65
2018-06-09T09:33:52.722Z,58.25
2018-06-09T09:36:21.121Z,58.45
2018-06-09T09:38:55.152Z,57.17
2018-06-09T09:41:24.421Z,56.65
2018-06-09T09:43:56.779Z,58.87
2018-06-09T09:46:26.090Z,58.42
2018-06-09T09:48:59.678Z,57.70
2018-06-09T09:51:28.109Z,61.33
2018-06-09T09:54:01.086Z,58.28
2018-06-09T09:56:30.733Z,57.30
2018-06-09T09:59:02.288Z,57.93
2018-06-09T10:01:31.189Z,59.70
2018-06-09T10:04:04.617Z,56.70
2018-06-09T10:06:33.561Z,55.73
2018-06-09T10:09:11.535Z,56.48
2018-06-09T10:11:40.646Z,56.77
2018-06-09T10:14:09.079Z,56.10
2018-06-09T10:16:41.216Z,55.38
2018-06-09T10:19:11.580Z,53.02
2018-06-09T10:21:42.440Z,54.45
2018-06-09T10:26:32.511Z,54.00
2018-06-09T10:29:01.534Z,53.02
2018-06-09T10:31:30.723Z,49.60
2018-06-09T10:33:59.363Z,56.13
2018-06-09T10:36:27.779Z,52.25
2018-06-09T10:38:56.627Z,52.03
2018-06-09T10:41:25.044Z,52.75
2018-06-09T10:43:53.474Z,52.23
2018-06-09T10:46:23.105Z,54.90
2018-06-09T10:48:54.381Z,51.40
2018-06-09T10:51:23.307Z,52.38
2018-06-09T10:53:52.626Z,50.70
2018-06-09T10:56:28.046Z,51.37
2018-06-09T10:58:58.747Z,50.95
2018-06-09T11:01:27.398Z,51.98
2018-06-09T11:03:57.905Z,53.28
2018-06-09T11:06:30.740Z,51.20
2018-06-09T11:09:01.210Z,49.20
2018-06-09T11:11:30.357Z,50.43
2018-06-09T11:14:00.230Z,48.20
2018-06-09T11:16:32.532Z,50.65
2018-06-09T11:19:01.717Z,50.28
2018-06-09T11:21:33.794Z,51.13
2018-06-09T11:24:03.069Z,47.85
2018-06-09T11:26:45.885Z,45.78
2018-06-09T11:29:19.897Z,47.93
2018-06-09T11:31:48.490Z,48.15
2018-06-09T11:34:17.528Z,50.95
2018-06-09T11:36:46.752Z,50.52
2018-06-09T11:39:15.172Z,48.13
2018-06-09T11:41:44.417Z,46.83
2018-06-09T11:44:15.378Z,46.73
2018-06-09T11:46:44.725Z,43.65
2018-06-09T11:49:13.165Z,44.65
2018-06-09T11:51:46.614Z,45.52
2018-06-09T11:54:15.688Z,46.88
2018-06-09T11:56:57.806Z,48.35
2018-06-09T11:59:27.338Z,46.37
2018-06-09T12:02:03.323Z,49.80
2018-06-09T12:04:32.577Z,50.48
2018-06-09T12:10:35.463Z,49.18
2018-06-09T12:13:07.886Z,48.00
2018-06-09T12:15:37.541Z,48.78
2018-06-09T12:18:08.136Z,47.75
2018-06-09T12:20:37.169Z,46.18
2018-06-09T12:23:05.591Z,45.63
2018-06-09T12:25:34.221Z,46.00
2018-06-09T12:28:03.184Z,49.08
2018-06-09T12:30:32.045Z,44.75
2018-06-09T12:35:30.556Z,45.83
2018-06-09T12:38:12.617Z,45.98
2018-06-09T12:40:44.249Z,45.03
2018-06-09T12:43:14.176Z,47.73
2018-06-09T12:45:44.091Z,45.83
2018-06-09T12:48:13.213Z,44.10
2018-06-09T12:50:42.013Z,45.08
2018-06-09T12:53:12.350Z,48.17
2018-06-09T12:55:41.482Z,45.30
2018-06-09T12:58:15.664Z,48.75
2018-06-09T13:00:45.901Z,45.92
2018-06-09T13:03:16.306Z,44.60
2018-06-09T13:05:48.726Z,45.52
2018-06-09T13:08:18.799Z,47.83
2018-06-09T13:10:48.185Z,44.93
2018-06-09T13:13:20.431Z,45.23
2018-06-09T13:15:49.583Z,46.55
2018-06-09T13:18:21.070Z,45.03
2018-06-09T13:20:50.184Z,46.02
2018-06-09T13:23:23.652Z,48.60
2018-06-09T13:25:54.169Z,49.90
2018-06-09T13:28:26.709Z,45.90
2018-06-09T13:30:56.979Z,49.05
2018-06-09T13:33:27.269Z,47.43
2018-06-09T13:35:56.713Z,51.35
2018-06-09T13:38:32.331Z,51.18
2018-06-09T13:41:03.189Z,51.35
2018-06-09T13:43:34.256Z,53.20
2018-06-09T13:46:06.199Z,51.75
2018-06-09T13:48:35.017Z,49.55
2018-06-09T13:51:03.678Z,49.33
2018-06-09T13:53:36.232Z,45.83
2018-06-09T13:56:05.027Z,47.15
2018-06-09T13:58:46.113Z,47.05
2018-06-09T14:01:20.424Z,48.25
2018-06-09T14:03:49.258Z,46.83
2018-06-09T14:06:18.057Z,45.95
2018-06-09T14:08:48.418Z,44.35
2018-06-09T14:11:17.079Z,52.30
2018-06-09T14:13:46.372Z,50.35
2018-06-09T14:16:15.096Z,52.33
2018-06-09T14:18:51.785Z,50.33
2018-06-09T14:21:22.723Z,50.78
2018-06-09T14:23:52.173Z,51.42
2018-06-09T14:26:22.193Z,49.65
2018-06-09T14:28:51.503Z,48.80
2018-06-09T14:31:24.801Z,48.70
2018-06-09T14:33:54.745Z,47.17
2018-06-09T14:36:24.604Z,45.78
2018-06-09T14:38:55.410Z,45.85
2018-06-09T14:41:24.855Z,43.55
2018-06-09T14:43:59.429Z,47.48
2018-06-09T14:46:28.718Z,47.40
2018-06-09T14:49:01.704Z,45.12
2018-06-09T14:51:30.490Z,40.10
2018-06-09T14:54:02.697Z,40.78
2018-06-09T14:56:32.124Z,44.38
2018-06-09T14:59:15.262Z,44.80
2018-06-09T15:01:45.712Z,41.13
2018-06-09T15:04:15.177Z,38.90
2018-06-09T15:06:44.290Z,40.28
2018-06-09T15:09:13.696Z,38.58
2018-06-09T15:11:42.101Z,38.42
2018-06-09T15:14:12.537Z,37.13
2018-06-09T15:16:41.341Z,35.48
2018-06-09T15:19:13.243Z,36.65
2018-06-09T15:21:43.923Z,34.45
2018-06-09T15:24:16.599Z,37.45
2018-06-09T15:26:45.628Z,33.25
2018-06-09T15:29:19.193Z,34.03
2018-06-09T15:31:48.663Z,31.50
2018-06-09T15:34:21.161Z,31.02
2018-06-09T15:36:51.043Z,32.90
2018-06-09T15:39:21.186Z,32.70
2018-06-09T15:41:51.303Z,30.08
2018-06-09T15:44:24.824Z,33.53
2018-06-09T15:46:55.203Z,31.80
2018-06-09T15:49:25.689Z,30.80
2018-06-09T15:51:54.402Z,32.25
2018-06-09T15:54:28.056Z,30.50
2018-06-09T15:56:57.701Z,32.17
2018-06-09T15:59:30.134Z,31.45
2018-06-09T16:01:59.337Z,31.50
2018-06-09T16:04:31.606Z,29.20
2018-06-09T16:07:04.230Z,31.02
2018-06-09T16:09:35.045Z,31.35
2018-06-09T16:12:06.204Z,30.68
2018-06-09T16:14:35.635Z,29.65
2018-06-09T16:17:07.408Z,28.73
2018-06-09T16:19:36.524Z,31.02
2018-06-09T16:22:06.441Z,30.02
2018-06-09T16:24:38.543Z,30.08
2018-06-09T16:27:07.783Z,31.33
2018-06-09T16:29:40.667Z,27.98
2018-06-09T16:32:10.636Z,30.35
2018-06-09T16:34:45.276Z,32.50
2018-06-09T16:37:14.645Z,32.75
2018-06-09T16:39:44.999Z,31.20
2018-06-09T16:42:14.195Z,33.00
2018-06-09T16:44:46.694Z,32.55
2018-06-09T16:47:15.533Z,33.05
2018-06-09T16:49:55.679Z,31.77
2018-06-09T16:52:25.425Z,30.35
2018-06-09T16:54:55.125Z,31.48
2018-06-09T16:57:24.706Z,31.57
2018-06-09T16:59:54.188Z,31.62
2018-06-09T17:02:22.696Z,32.28
2018-06-09T17:04:56.718Z,30.05
2018-06-09T17:07:33.568Z,30.25
2018-06-09T17:10:02.617Z,31.00
2018-06-09T17:12:32.254Z,28.98
2018-06-09T17:15:01.029Z,29.18
2018-06-09T17:17:30.359Z,29.23
2018-06-09T17:20:11.708Z,32.33
2018-06-09T17:22:42.324Z,30.43
2018-06-09T17:25:11.689Z,31.73
2018-06-09T17:27:41.160Z,32.80
2018-06-09T17:30:09.585Z,31.00
2018-06-09T17:32:39.187Z,31.62
2018-06-09T17:35:15.398Z,32.50
2018-06-09T17:37:44.414Z,31.95
2018-06-09T17:40:13.351Z,33.90
2018-06-09T17:42:42.430Z,33.65
2018-06-09T17:45:15.709Z,33.55
2018-06-09T17:47:44.537Z,32.85
2018-06-09T17:50:16.981Z,31.95
2018-06-09T17:52:46.593Z,31.15
2018-06-09T17:55:19.317Z,31.62
2018-06-09T17:57:48.827Z,32.83
2018-06-09T18:00:23.099Z,31.00
2018-06-09T18:02:53.683Z,31.30
2018-06-09T18:05:25.230Z,31.33
2018-06-09T18:07:57.705Z,30.57
2018-06-09T18:10:29.183Z,30.43
2018-06-09T18:12:59.200Z,32.17
2018-06-09T18:15:27.622Z,31.35
2018-06-09T18:17:56.482Z,30.85
2018-06-09T18:20:27.545Z,30.55
2018-06-09T18:22:55.997Z,30.50
2018-06-09T18:25:30.353Z,29.57
2018-06-09T18:27:59.945Z,30.00
2018-06-09T18:30:32.098Z,28.70
2018-06-09T18:33:01.447Z,29.37
2018-06-09T18:35:34.078Z,29.57
2018-06-09T18:38:04.598Z,29.00
2018-06-09T18:40:38.126Z,28.75
2018-06-09T18:43:07.162Z,29.35
2018-06-09T18:45:38.915Z,28.73
2018-06-09T18:48:09.876Z,28.50
2018-06-09T18:50:45.203Z,28.32
2018-06-09T18:53:17.241Z,29.05
2018-06-09T18:55:46.770Z,29.10
2018-06-09T18:58:15.802Z,27.05
2018-06-09T19:00:50.314Z,27.10
2018-06-09T19:03:22.366Z,29.92
2018-06-09T19:05:51.585Z,27.87
2018-06-09T19:08:21.697Z,29.40
2018-06-09T19:10:51.574Z,27.48
2018-06-09T19:13:21.920Z,29.73
2018-06-09T19:15:51.612Z,31.20
2018-06-09T19:18:20.526Z,30.40
2018-06-09T19:20:53.624Z,30.07
2018-06-09T19:23:24.209Z,30.90
2018-06-09T19:25:56.662Z,29.18
2018-06-09T19:28:28.324Z,30.63
2018-06-09T19:30:59.190Z,32.50
2018-06-09T19:33:27.640Z,28.83
2018-06-09T19:36:00.970Z,32.03
2018-06-09T19:38:31.001Z,29.63
2018-06-09T19:41:03.410Z,30.30
2018-06-09T19:43:34.290Z,30.93
2018-06-09T19:46:10.641Z,31.53
2018-06-09T19:48:40.174Z,32.37
2018-06-09T19:51:08.709Z,33.53
2018-06-09T19:53:38.689Z,32.03
2018-06-09T19:56:09.684Z,33.03
2018-06-09T19:58:40.113Z,34.20
2018-06-09T20:01:17.524Z,35.63
2018-06-09T20:03:48.871Z,33.70
2018-06-09T20:06:18.191Z,34.50
2018-06-09T20:08:48.419Z,34.60
2018-06-09T20:11:20.176Z,35.07
2018-06-09T20:13:49.017Z,35.77
2018-06-09T20:16:18.273Z,34.67
2018-06-09T20:18:48.714Z,35.03
2018-06-09T20:21:18.306Z,35.53
2018-06-09T20:23:47.881Z,37.87
2018-06-09T20:26:25.436Z,38.23
2018-06-09T20:28:54.191Z,37.47
2018-06-09T20:31:25.081Z,38.03
2018-06-09T20:33:57.318Z,36.60
2018-06-09T20:36:25.717Z,38.40
2018-06-09T20:38:55.554Z,37.30
2018-06-09T20:41:26.541Z,39.53
2018-06-09T20:43:54.966Z,39.87
2018-06-09T20:46:29.241Z,41.13
2018-06-09T20:48:58.476Z,42.80
2018-06-09T20:51:31.102Z,41.43
2018-06-09T20:54:03.274Z,40.93
2018-06-09T20:56:32.690Z,41.80
2018-06-09T20:59:02.409Z,43.50
2018-06-09T21:01:35.569Z,43.97
2018-06-09T21:04:05.386Z,42.70
2018-06-09T21:06:38.413Z,44.13
2018-06-09T21:09:08.475Z,44.37
2018-06-09T21:11:39.781Z,46.33
2018-06-09T21:14:09.861Z,46.53
2018-06-09T21:16:43.754Z,42.93
2018-06-09T21:19:13.071Z,44.43
2018-06-09T21:21:44.662Z,45.10
2018-06-09T21:24:14.001Z,48.77
2018-06-09T21:26:55.585Z,47.87
2018-06-09T21:29:29.252Z,46.17
2018-06-09T21:32:03.417Z,46.73
2018-06-09T21:37:22.488Z,48.37
2018-06-09T21:39:56.524Z,48.80
2018-06-09T21:42:32.428Z,46.83
2018-06-09T21:45:06.598Z,46.37
2018-06-09T21:47:34.989Z,48.00
2018-06-09T21:50:05.842Z,47.00
2018-06-09T21:52:35.045Z,47.77
2018-06-09T21:55:05.967Z,47.87
2018-06-09T21:57:34.749Z,46.97
2018-06-09T22:00:05.631Z,47.10
2018-06-09T22:02:34.930Z,47.30
2018-06-09T22:05:06.982Z,44.87
2018-06-09T22:07:39.582Z,49.30
2018-06-09T22:10:13.084Z,51.33
2018-06-09T22:12:45.513Z,48.53
2018-06-09T22:15:14.725Z,49.30
2018-06-09T22:17:45.251Z,51.53
2018-06-09T22:20:14.277Z,50.70
2018-06-09T22:22:44.726Z,52.00
2018-06-09T22:25:13.695Z,49.40
2018-06-09T22:27:44.181Z,50.50
2018-06-09T22:30:16.206Z,51.63
2018-06-09T22:32:47.503Z,49.73
2018-06-09T22:35:18.329Z,51.03
2018-06-09T22:37:48.170Z,52.57
2018-06-09T22:40:18.692Z,51.70
2018-06-09T22:42:48.210Z,50.20
2018-06-09T22:45:20.202Z,49.70
2018-06-09T22:47:49.582Z,48.30
2018-06-09T22:50:20.710Z,45.77
2018-06-09T22:52:50.736Z,45.33
2018-06-09T22:55:23.493Z,49.50
2018-06-09T22:57:55.409Z,52.23
2018-06-09T23:00:37.441Z,49.97
2018-06-09T23:03:11.302Z,50.20
2018-06-09T23:05:43.669Z,48.87
2018-06-09T23:08:15.721Z,49.23
2018-06-09T23:10:45.761Z,44.83
2018-06-09T23:13:14.665Z,39.57
2018-06-09T23:15:44.570Z,42.27
2018-06-09T23:18:13.923Z,40.13
2018-06-09T23:20:43.554Z,33.90
2018-06-09T23:23:13.679Z,31.80
2018-06-09T23:25:43.770Z,31.10
2018-06-09T23:28:13.144Z,33.37
2018-06-09T23:30:43.074Z,25.07
2018-06-09T23:33:13.357Z,20.43
2018-06-09T23:35:42.072Z,16.77
2018-06-09T23:38:11.671Z,16.23
2018-06-09T23:40:40.805Z,16.70
2018-06-09T23:43:10.400Z,19.13
2018-06-09T23:45:42.997Z,19.30
2018-06-09T23:48:12.181Z,22.97
2018-06-09T23:50:54.466Z,22.97
2018-06-09T23:53:24.308Z,22.23
2018-06-09T23:55:53.128Z,22.77
2018-06-09T23:58:22.779Z,21.23
